Aviation Digital Data Service (ADDS)

Output produced by METARs form (1204 UTC 24 February 2018)
found at http://www.aviationweather.gov/adds/metars/
 
VYMD 241130Z 33002KT 6000 HZ NSC 29/16 Q1011
TAF VYMD 241100Z 2412/2512 31006KT 7000 FEW025 
     TEMPO 2412/2418 36007KT 6000 HZ FEW020
       
VYYY 241130Z 26005KT 7000 NSC 32/22 Q1010
TAF VYYY 241100Z 2412/2512 25005KT 8000 FEW018 SCT110 
     TEMPO 2412/2418 NSC